createdAt,value
2018-08-17T00:00:18.366Z,84.08
2018-08-17T00:00:57.368Z,84.08
2018-08-17T00:01:57.369Z,83.98
2018-08-17T00:04:29.119Z,84.08
2018-08-17T00:05:31.065Z,83.80
2018-08-17T00:06:29.126Z,83.98
2018-08-17T00:07:28.599Z,83.80
2018-08-17T00:10:03.790Z,83.98
2018-08-17T00:11:02.320Z,84.08
2018-08-17T00:12:00.857Z,83.80
2018-08-17T00:13:15.373Z,84.37
2018-08-17T00:14:22.403Z,84.75
2018-08-17T00:15:02.842Z,84.56
2018-08-17T00:17:34.537Z,84.42
2018-08-17T00:18:48.542Z,85.14
2018-08-17T00:19:34.542Z,85.48
2018-08-17T00:20:49.039Z,85.67
2018-08-17T00:21:57.042Z,85.58
2018-08-17T00:22:35.041Z,85.58
2018-08-17T00:23:41.042Z,85.96
2018-08-17T00:24:36.974Z,85.67
2018-08-17T00:25:37.541Z,84.91
2018-08-17T00:26:49.545Z,84.71
2018-08-17T00:27:56.002Z,84.71
2018-08-17T00:29:03.041Z,84.33
2018-08-17T00:31:21.428Z,84.61
2018-08-17T00:32:21.435Z,84.61
2018-08-17T00:33:28.435Z,85.38
2018-08-17T00:34:28.950Z,85.58
2018-08-17T00:35:28.935Z,85.58
2018-08-17T00:36:28.938Z,85.77
2018-08-17T00:37:28.936Z,85.77
2018-08-17T00:39:39.695Z,85.67
2018-08-17T00:42:11.203Z,85.77
2018-08-17T00:43:11.204Z,85.96
2018-08-17T00:44:11.209Z,86.05
2018-08-17T00:45:11.712Z,85.77
2018-08-17T00:46:12.672Z,85.77
2018-08-17T00:47:11.019Z,86.34
2018-08-17T00:48:11.811Z,86.44
2018-08-17T00:49:11.716Z,87.01
2018-08-17T00:50:14.142Z,86.82
2018-08-17T00:52:49.581Z,86.15
2018-08-17T00:53:46.520Z,86.25
2018-08-17T00:54:43.068Z,86.15
2018-08-17T00:57:15.318Z,86.63
2018-08-17T00:58:15.325Z,86.82
2018-08-17T00:59:14.822Z,87.59
2018-08-17T01:00:21.840Z,87.30
2018-08-17T01:02:47.219Z,87.21
2018-08-17T01:03:47.226Z,87.35
2018-08-17T01:04:46.730Z,87.45
2018-08-17T01:07:39.228Z,87.35
2018-08-17T01:08:18.994Z,87.55
2018-08-17T01:09:18.994Z,87.59
2018-08-17T01:10:40.494Z,86.72
2018-08-17T01:11:19.491Z,86.15
2018-08-17T01:12:40.493Z,86.34
2018-08-17T01:13:18.971Z,85.77
2018-08-17T01:14:21.994Z,86.05
2018-08-17T01:15:21.926Z,85.67
2018-08-17T01:16:19.999Z,86.15
2018-08-17T01:17:19.994Z,86.15
2018-08-17T01:19:52.240Z,86.72
2018-08-17T01:20:55.679Z,86.72
2018-08-17T01:21:53.253Z,86.25
2018-08-17T01:22:51.841Z,86.15
2018-08-17T01:25:44.345Z,85.53
2018-08-17T01:26:24.103Z,86.30
2018-08-17T01:28:55.319Z,86.15
2018-08-17T01:29:56.254Z,86.01
2018-08-17T01:30:57.717Z,86.01
2018-08-17T01:31:57.687Z,86.58
2018-08-17T01:32:56.262Z,87.07
2018-08-17T01:35:28.017Z,86.97
2018-08-17T01:36:28.027Z,87.07
2018-08-17T01:37:28.032Z,87.64
2018-08-17T01:38:49.958Z,87.55
2018-08-17T01:39:48.673Z,87.35
2018-08-17T01:40:27.759Z,87.16
2018-08-17T01:41:42.524Z,87.16
2018-08-17T01:42:28.525Z,87.07
2018-08-17T01:43:49.132Z,86.78
2018-08-17T01:44:50.024Z,86.78
2018-08-17T01:45:29.030Z,87.45
2018-08-17T01:46:50.024Z,87.55
2018-08-17T01:49:21.775Z,87.93
2018-08-17T01:50:00.785Z,87.45
2018-08-17T01:51:00.791Z,87.41
2018-08-17T01:52:01.283Z,87.74
2018-08-17T01:53:00.508Z,87.64
2018-08-17T01:54:22.282Z,88.17
2018-08-17T01:55:01.283Z,88.37
2018-08-17T01:56:02.714Z,88.79
2018-08-17T01:57:28.789Z,88.79
2018-08-17T01:59:54.300Z,88.22
2018-08-17T02:00:40.295Z,88.12
2018-08-17T02:01:47.297Z,88.02
2018-08-17T02:04:19.052Z,87.16
2018-08-17T02:05:05.051Z,87.64
2018-08-17T02:06:05.043Z,88.02
2018-08-17T02:07:04.654Z,88.37
2018-08-17T02:08:07.508Z,88.27
2018-08-17T02:09:05.557Z,88.84
2018-08-17T02:11:39.225Z,89.51
2018-08-17T02:12:39.228Z,89.13
2018-08-17T02:13:37.255Z,89.13
2018-08-17T02:14:37.732Z,88.94
2018-08-17T02:15:36.974Z,88.84
2018-08-17T02:16:37.735Z,88.65
2018-08-17T02:17:37.784Z,88.65
2018-08-17T02:19:05.229Z,88.27
2018-08-17T02:19:44.232Z,88.37
2018-08-17T02:21:00.664Z,88.65
2018-08-17T02:21:38.228Z,88.56
2018-08-17T02:22:40.727Z,88.84
2018-08-17T02:26:42.025Z,88.46
2018-08-17T02:27:42.034Z,88.37
2018-08-17T02:29:02.499Z,89.04
2018-08-17T02:29:44.530Z,89.23
2018-08-17T02:32:38.380Z,88.37
2018-08-17T02:33:15.394Z,88.17
2018-08-17T02:34:13.921Z,87.88
2018-08-17T02:35:13.527Z,87.88
2018-08-17T02:37:45.777Z,87.79
2018-08-17T02:38:45.778Z,87.50
2018-08-17T02:39:45.315Z,88.37
2018-08-17T02:40:46.277Z,87.70
2018-08-17T02:41:46.276Z,88.46
2018-08-17T02:42:46.279Z,88.94
2018-08-17T02:43:48.781Z,88.56
2018-08-17T02:44:45.882Z,88.46
2018-08-17T02:45:46.784Z,88.46
2018-08-17T02:47:00.781Z,88.56
2018-08-17T02:47:46.775Z,89.23
2018-08-17T02:48:53.281Z,89.42
2018-08-17T02:49:46.509Z,89.04
2018-08-17T02:50:47.208Z,88.90
2018-08-17T02:51:47.275Z,89.04
2018-08-17T02:53:01.281Z,89.13
2018-08-17T02:54:08.779Z,89.13
2018-08-17T02:54:47.014Z,89.51
2018-08-17T02:55:47.774Z,89.51
2018-08-17T02:56:47.760Z,89.32
2018-08-17T02:59:19.522Z,88.84
2018-08-17T03:00:19.513Z,89.04
2018-08-17T03:01:19.521Z,88.84
2018-08-17T03:02:20.018Z,88.94
2018-08-17T03:03:41.013Z,89.04
2018-08-17T03:04:20.020Z,88.94
2018-08-17T03:05:20.013Z,88.84
2018-08-17T03:06:20.514Z,88.84
2018-08-17T03:07:20.520Z,88.84
2018-08-17T03:08:20.515Z,89.23
2018-08-17T03:09:20.513Z,88.75
2018-08-17T03:10:21.020Z,88.70
2018-08-17T03:11:21.968Z,88.46
2018-08-17T03:12:20.319Z,88.65
2018-08-17T03:13:21.013Z,89.37
2018-08-17T03:14:21.014Z,89.04
2018-08-17T03:15:21.516Z,89.13
2018-08-17T03:16:21.519Z,89.86
2018-08-17T03:17:21.516Z,89.80
2018-08-17T03:18:21.520Z,90.09
2018-08-17T03:19:22.013Z,89.95
2018-08-17T03:21:53.396Z,89.47
2018-08-17T03:23:14.469Z,89.71
2018-08-17T03:23:53.412Z,89.32
2018-08-17T03:24:53.835Z,90.05
2018-08-17T03:25:53.090Z,90.23
2018-08-17T03:28:27.356Z,89.76
2018-08-17T03:29:25.412Z,89.13
2018-08-17T03:30:28.400Z,88.65
2018-08-17T03:32:58.606Z,89.47
2018-08-17T03:33:57.140Z,89.57
2018-08-17T03:34:56.625Z,90.43
2018-08-17T03:36:11.639Z,90.62
2018-08-17T03:36:57.638Z,90.53
2018-08-17T03:39:29.176Z,91.10
2018-08-17T03:40:29.182Z,90.81
2018-08-17T03:41:29.176Z,90.14
2018-08-17T03:44:02.936Z,89.95
2018-08-17T03:45:00.943Z,90.05
2018-08-17T03:46:00.941Z,89.66
2018-08-17T03:48:31.982Z,90.14
2018-08-17T03:49:32.704Z,90.33
2018-08-17T03:50:32.706Z,90.53
2018-08-17T03:51:35.639Z,91.00
2018-08-17T03:52:39.207Z,91.10
2018-08-17T03:53:54.645Z,91.00
2018-08-17T03:54:33.211Z,90.91
2018-08-17T03:55:34.647Z,91.10
2018-08-17T03:56:32.753Z,90.72
2018-08-17T03:57:39.707Z,90.91
2018-08-17T03:58:33.714Z,91.00
2018-08-17T03:59:33.709Z,91.10
2018-08-17T04:00:39.708Z,91.00
2018-08-17T04:03:19.455Z,91.19
2018-08-17T04:04:05.466Z,91.00
2018-08-17T04:05:26.465Z,91.29
2018-08-17T04:06:05.960Z,90.72
2018-08-17T04:07:29.893Z,90.91
2018-08-17T04:09:58.461Z,90.91
2018-08-17T04:14:00.662Z,90.33
2018-08-17T04:14:39.764Z,91.00
2018-08-17T04:15:41.387Z,90.81
2018-08-17T04:18:33.131Z,90.23
2018-08-17T04:19:11.487Z,90.05
2018-08-17T04:20:12.139Z,90.62
2018-08-17T04:21:26.645Z,90.53
2018-08-17T04:22:14.638Z,91.00
2018-08-17T04:23:12.638Z,90.81
2018-08-17T04:24:12.641Z,91.19
2018-08-17T04:27:05.386Z,90.81
2018-08-17T04:29:42.895Z,90.91
2018-08-17T04:30:15.900Z,90.23
2018-08-17T04:31:21.906Z,90.05
2018-08-17T04:32:36.488Z,89.76
2018-08-17T04:33:16.404Z,89.86
2018-08-17T04:34:17.867Z,89.66
2018-08-17T04:35:16.406Z,90.05
2018-08-17T04:36:39.903Z,90.53
2018-08-17T04:39:02.292Z,91.00
2018-08-17T04:40:09.294Z,91.00
2018-08-17T04:40:50.256Z,90.62
2018-08-17T04:43:20.011Z,90.62
2018-08-17T04:44:20.019Z,90.62
2018-08-17T04:45:20.019Z,91.00
2018-08-17T04:46:20.518Z,90.81
2018-08-17T04:47:20.522Z,90.72
2018-08-17T04:48:20.528Z,90.81
2018-08-17T04:49:20.605Z,90.91
2018-08-17T04:51:52.291Z,90.86
2018-08-17T04:52:52.300Z,90.91
2018-08-17T04:53:52.290Z,90.81
2018-08-17T04:54:53.224Z,90.53
2018-08-17T04:55:51.976Z,90.95
2018-08-17T04:58:23.857Z,90.53
2018-08-17T04:59:23.948Z,90.47
2018-08-17T05:00:30.760Z,91.14
2018-08-17T05:04:33.716Z,91.05
2018-08-17T05:05:41.725Z,90.67
2018-08-17T05:06:49.719Z,91.14
2018-08-17T05:09:05.593Z,90.95
2018-08-17T05:09:59.475Z,90.95
2018-08-17T05:10:59.475Z,90.33
2018-08-17T05:13:31.220Z,90.42
2018-08-17T05:14:32.166Z,90.23
2018-08-17T05:15:31.234Z,90.42
2018-08-17T05:16:31.227Z,91.09
2018-08-17T05:19:02.243Z,90.23
2018-08-17T05:20:02.980Z,90.33
2018-08-17T05:21:02.980Z,90.42
2018-08-17T05:23:48.740Z,90.90
2018-08-17T05:24:35.666Z,90.61
2018-08-17T05:25:34.736Z,91.28
2018-08-17T05:28:07.454Z,91.38
2018-08-17T05:29:06.487Z,90.90
2018-08-17T05:30:06.497Z,91.00
2018-08-17T05:32:44.258Z,91.43
2018-08-17T05:33:52.264Z,91.28
2018-08-17T05:34:40.264Z,91.09
2018-08-17T05:35:37.862Z,90.90
2018-08-17T05:39:43.855Z,91.67
2018-08-17T05:40:41.865Z,91.86
2018-08-17T05:41:44.317Z,91.28
2018-08-17T05:42:42.362Z,91.09
2018-08-17T05:44:02.570Z,90.71
2018-08-17T05:44:42.362Z,91.09
2018-08-17T05:45:42.364Z,90.90
2018-08-17T05:47:03.862Z,90.71
2018-08-17T05:47:42.090Z,91.48
2018-08-17T05:48:42.869Z,90.71
2018-08-17T05:49:42.862Z,90.95
2018-08-17T05:50:43.363Z,91.05
2018-08-17T05:51:44.335Z,90.95
2018-08-17T05:53:04.368Z,90.85
2018-08-17T05:53:42.846Z,91.14
2018-08-17T05:54:42.946Z,91.05
2018-08-17T05:56:05.863Z,90.66
2018-08-17T05:56:43.300Z,91.05
2018-08-17T05:57:43.862Z,90.47
2018-08-17T05:59:04.462Z,90.47
2018-08-17T06:00:07.368Z,90.18
2018-08-17T06:00:44.363Z,90.18
2018-08-17T06:01:44.363Z,90.47
2018-08-17T06:03:11.864Z,90.22
2018-08-17T06:05:18.782Z,89.36
2018-08-17T06:06:15.882Z,88.59
2018-08-17T06:09:02.131Z,87.73
2018-08-17T06:09:48.148Z,87.96
2018-08-17T06:11:09.407Z,87.35
2018-08-17T06:11:54.638Z,87.39
2018-08-17T06:13:02.637Z,87.58
2018-08-17T06:13:47.993Z,86.62
2018-08-17T06:14:48.636Z,86.81
2018-08-17T06:15:49.136Z,85.85
2018-08-17T06:17:10.068Z,86.62
2018-08-17T06:17:55.160Z,86.52
2018-08-17T06:18:49.136Z,86.43
2018-08-17T06:21:41.337Z,86.85
2018-08-17T06:22:44.291Z,86.18
2018-08-17T06:23:21.288Z,86.66
2018-08-17T06:24:43.286Z,86.28
2018-08-17T06:25:21.288Z,85.99
2018-08-17T06:27:53.043Z,85.80
2018-08-17T06:30:24.549Z,85.89
2018-08-17T06:31:24.556Z,85.71
2018-08-17T06:32:24.553Z,85.22
2018-08-17T06:34:59.257Z,83.49
2018-08-17T06:37:33.832Z,83.63
2018-08-17T06:38:41.840Z,83.15
2018-08-17T06:39:48.839Z,83.15
2018-08-17T06:40:49.351Z,82.19
2018-08-17T06:41:27.600Z,82.52
2018-08-17T06:42:28.339Z,81.37
2018-08-17T06:43:48.795Z,80.88
2018-08-17T06:46:00.059Z,80.88
2018-08-17T06:47:00.067Z,80.83
2018-08-17T06:48:00.069Z,81.12
2018-08-17T06:49:02.571Z,80.83
2018-08-17T06:50:00.574Z,81.21
2018-08-17T06:51:14.566Z,80.83
2018-08-17T06:52:00.570Z,80.54
2018-08-17T06:53:21.150Z,80.83
2018-08-17T06:54:22.067Z,80.44
2018-08-17T06:55:15.066Z,80.19
2018-08-17T06:56:01.066Z,78.81
2018-08-17T06:57:15.659Z,79.13
2018-08-17T06:58:00.825Z,78.46
2018-08-17T06:59:07.571Z,79.03
2018-08-17T07:00:15.567Z,78.75
2018-08-17T07:01:23.012Z,78.65
2018-08-17T07:02:01.244Z,78.27
2018-08-17T07:03:02.067Z,78.75
2018-08-17T07:04:02.067Z,77.25
2018-08-17T07:05:03.499Z,77.25
2018-08-17T07:06:01.669Z,77.53
2018-08-17T07:07:03.498Z,77.25
2018-08-17T07:09:48.061Z,76.42
2018-08-17T07:12:11.570Z,75.93
2018-08-17T07:13:05.575Z,75.74
2018-08-17T07:14:08.055Z,74.97
2018-08-17T07:15:05.171Z,75.49
2018-08-17T07:16:08.077Z,74.72
2018-08-17T07:17:20.079Z,74.43
2018-08-17T07:18:28.007Z,74.52
2018-08-17T07:20:37.839Z,74.18
2018-08-17T07:21:37.211Z,74.08
2018-08-17T07:22:39.311Z,74.85
2018-08-17T07:23:58.405Z,74.95
2018-08-17T07:24:44.339Z,74.37
2018-08-17T07:27:30.767Z,73.50
2018-08-17T07:29:43.223Z,73.54
2018-08-17T07:30:41.291Z,73.25
2018-08-17T07:31:41.292Z,72.86
2018-08-17T07:33:02.788Z,72.58
2018-08-17T07:33:41.788Z,72.09
2018-08-17T07:37:44.012Z,72.19
2018-08-17T07:38:44.724Z,72.22
2018-08-17T07:39:45.161Z,73.28
2018-08-17T07:40:45.227Z,73.28
2018-08-17T07:41:45.309Z,73.58
2018-08-17T07:43:12.225Z,73.19
2018-08-17T07:43:46.179Z,73.77
2018-08-17T07:44:45.726Z,73.09
2018-08-17T07:46:10.657Z,72.90
2018-08-17T07:46:45.073Z,72.80
2018-08-17T07:47:45.804Z,71.06
2018-08-17T07:49:00.226Z,72.13
2018-08-17T07:49:46.228Z,72.03
2018-08-17T07:50:45.575Z,71.16
2018-08-17T07:51:46.658Z,70.52
2018-08-17T07:53:07.728Z,70.90
2018-08-17T07:55:19.409Z,69.98
2018-08-17T07:56:19.480Z,69.30
2018-08-17T07:57:19.411Z,68.43
2018-08-17T07:58:19.911Z,67.75
2018-08-17T07:59:19.911Z,67.98
2018-08-17T08:00:19.917Z,67.69
2018-08-17T08:01:33.911Z,67.98
2018-08-17T08:02:40.500Z,67.01
2018-08-17T08:03:20.419Z,66.82
2018-08-17T08:04:20.411Z,66.08
2018-08-17T08:05:20.418Z,67.14
2018-08-17T08:07:52.169Z,65.50
2018-08-17T08:08:52.187Z,65.20
2018-08-17T08:09:51.647Z,64.92
2018-08-17T08:10:52.678Z,65.30
2018-08-17T08:11:54.678Z,65.88
2018-08-17T08:12:52.033Z,64.92
2018-08-17T08:13:53.677Z,65.69
2018-08-17T08:14:52.280Z,66.37
2018-08-17T08:16:13.396Z,66.08
2018-08-17T08:17:14.205Z,67.63
2018-08-17T08:19:26.173Z,66.75
2018-08-17T08:20:28.756Z,66.56
2018-08-17T08:21:24.724Z,66.37
2018-08-17T08:22:48.241Z,66.27
2018-08-17T08:23:26.169Z,67.14
2018-08-17T08:24:52.229Z,67.33
2018-08-17T08:27:10.746Z,66.66
2018-08-17T08:27:56.753Z,66.75
2018-08-17T08:28:58.185Z,66.47
2018-08-17T08:30:18.254Z,66.02
2018-08-17T08:31:11.336Z,65.82
2018-08-17T08:31:59.194Z,65.53
2018-08-17T08:32:57.268Z,67.21
2018-08-17T08:34:20.776Z,66.72
2018-08-17T08:35:11.754Z,65.66
2018-08-17T08:37:50.262Z,64.20
2018-08-17T08:38:29.346Z,64.89
2018-08-17T08:39:44.221Z,65.66
2018-08-17T08:40:50.767Z,64.82
2018-08-17T08:43:01.163Z,63.72
2018-08-17T08:44:22.168Z,61.40
2018-08-17T08:45:22.213Z,61.52
2018-08-17T08:47:32.947Z,60.97
2018-08-17T08:48:32.944Z,61.75
2018-08-17T08:49:32.945Z,61.07
2018-08-17T08:50:56.437Z,61.26
2018-08-17T08:52:32.766Z,59.61
2018-08-17T08:53:54.442Z,60.00
2018-08-17T08:54:34.887Z,60.81
2018-08-17T08:55:54.081Z,60.71
2018-08-17T08:56:56.377Z,59.94
2018-08-17T08:57:33.947Z,60.32
2018-08-17T08:58:33.954Z,59.16
2018-08-17T08:59:38.877Z,59.06
2018-08-17T09:00:33.671Z,59.55
2018-08-17T09:01:33.792Z,58.19
2018-08-17T09:02:33.885Z,59.77
2018-08-17T09:03:48.951Z,57.64
2018-08-17T09:04:57.945Z,58.54
2018-08-17T09:05:36.377Z,57.34
2018-08-17T09:06:56.944Z,56.67
2018-08-17T09:07:34.424Z,57.34
2018-08-17T09:08:55.520Z,57.54
2018-08-17T09:09:35.446Z,56.98
2018-08-17T09:10:41.450Z,57.67
2018-08-17T09:11:35.445Z,57.96
2018-08-17T09:12:35.445Z,58.05
2018-08-17T09:15:07.217Z,56.98
2018-08-17T09:16:21.220Z,56.70
2018-08-17T09:17:08.223Z,56.40
2018-08-17T09:18:34.723Z,56.40
2018-08-17T09:20:39.180Z,57.47
2018-08-17T09:22:00.134Z,57.37
2018-08-17T09:23:00.134Z,58.03
2018-08-17T09:23:54.627Z,57.57
2018-08-17T09:25:00.625Z,57.76
2018-08-17T09:25:45.626Z,57.08
2018-08-17T09:26:39.626Z,57.28
2018-08-17T09:29:11.427Z,56.70
2018-08-17T09:30:11.438Z,56.60
2018-08-17T09:31:10.899Z,57.67
2018-08-17T09:32:11.006Z,55.43
2018-08-17T09:33:11.919Z,55.63
2018-08-17T09:34:25.923Z,55.53
2018-08-17T09:35:11.403Z,55.94
2018-08-17T09:36:32.492Z,56.72
2018-08-17T09:37:12.433Z,55.75
2018-08-17T09:39:44.791Z,55.17
2018-08-17T09:40:43.859Z,55.65
2018-08-17T09:41:49.921Z,56.72
2018-08-17T09:42:44.359Z,55.46
2018-08-17T09:44:05.359Z,53.81
2018-08-17T09:44:44.360Z,53.83
2018-08-17T09:45:44.362Z,53.93
2018-08-17T09:46:58.860Z,54.22
2018-08-17T09:49:15.552Z,53.54
2018-08-17T09:53:19.262Z,54.61
2018-08-17T09:54:20.246Z,53.64
2018-08-17T09:55:19.273Z,53.47
2018-08-17T09:56:44.702Z,53.08
2018-08-17T09:59:11.411Z,52.40
2018-08-17T09:59:51.168Z,52.69
2018-08-17T10:00:51.169Z,52.79
2018-08-17T10:02:05.674Z,53.18
2018-08-17T10:02:50.899Z,53.18
2018-08-17T10:03:52.652Z,53.69
2018-08-17T10:04:51.169Z,52.14
2018-08-17T10:06:15.168Z,52.43
2018-08-17T10:07:13.168Z,52.43
2018-08-17T10:07:52.169Z,52.82
2018-08-17T10:08:51.659Z,52.53
2018-08-17T10:09:51.781Z,52.72
2018-08-17T10:11:15.138Z,52.23
2018-08-17T10:11:51.990Z,52.53
2018-08-17T10:12:52.669Z,52.53
2018-08-17T10:13:53.636Z,52.62
2018-08-17T10:14:52.250Z,52.23
2018-08-17T10:16:14.174Z,52.72
2018-08-17T10:16:54.633Z,53.01
2018-08-17T10:17:53.169Z,52.72
2018-08-17T10:18:53.684Z,52.33
2018-08-17T10:19:52.914Z,52.53
2018-08-17T10:20:53.708Z,52.92
2018-08-17T10:21:53.913Z,52.92
2018-08-17T10:23:15.173Z,52.82
2018-08-17T10:23:53.408Z,52.92
2018-08-17T10:24:53.513Z,52.72
2018-08-17T10:25:54.169Z,52.92
2018-08-17T10:26:54.696Z,52.92
2018-08-17T10:27:54.672Z,52.72
2018-08-17T10:28:54.670Z,52.62
2018-08-17T10:29:54.161Z,53.11
2018-08-17T10:30:54.273Z,53.86
2018-08-17T10:32:01.177Z,53.77
2018-08-17T10:37:36.558Z,52.26
2018-08-17T10:38:29.617Z,52.16
2018-08-17T10:39:44.117Z,51.97
2018-08-17T10:40:32.125Z,52.16
2018-08-17T10:41:59.049Z,52.26
2018-08-17T10:42:31.558Z,51.97
2018-08-17T10:43:29.731Z,52.06
2018-08-17T10:47:33.444Z,52.45
2018-08-17T10:48:32.807Z,51.97
2018-08-17T10:49:33.442Z,51.97
2018-08-17T10:50:54.965Z,51.90
2018-08-17T10:51:33.189Z,52.09
2018-08-17T10:52:33.949Z,52.45
2018-08-17T10:53:55.442Z,52.16
2018-08-17T10:54:34.442Z,51.19
2018-08-17T10:55:34.461Z,51.67
2018-08-17T10:56:34.442Z,51.87
2018-08-17T10:57:34.543Z,51.21
2018-08-17T10:58:36.942Z,51.90
2018-08-17T10:59:34.942Z,51.12
2018-08-17T11:00:36.949Z,51.12
2018-08-17T11:01:50.383Z,51.41
2018-08-17T11:04:35.101Z,51.21
2018-08-17T11:08:11.786Z,51.14
2018-08-17T11:09:32.793Z,51.41
2018-08-17T11:10:11.782Z,52.38
2018-08-17T11:11:11.266Z,51.12
2018-08-17T11:12:12.285Z,52.67
2018-08-17T11:13:33.384Z,51.90
2018-08-17T11:14:12.279Z,51.41
2018-08-17T11:15:12.279Z,50.53
2018-08-17T11:16:33.783Z,49.85
2018-08-17T11:17:12.781Z,49.49
2018-08-17T11:18:35.219Z,50.65
2018-08-17T11:19:12.211Z,51.34
2018-08-17T11:22:05.521Z,50.58
2018-08-17T11:22:44.542Z,50.68
2018-08-17T11:23:44.532Z,50.19
2018-08-17T11:24:44.139Z,50.38
2018-08-17T11:25:45.040Z,49.80
2018-08-17T11:26:44.415Z,49.71
2018-08-17T11:27:44.522Z,50.87
2018-08-17T11:28:45.529Z,50.19
2018-08-17T11:29:44.763Z,49.71
2018-08-17T11:30:45.534Z,50.58
2018-08-17T11:33:17.205Z,49.44
2018-08-17T11:34:17.231Z,49.54
2018-08-17T11:35:17.212Z,49.83
2018-08-17T11:36:38.705Z,49.07
2018-08-17T11:37:38.713Z,48.39
2018-08-17T11:38:19.707Z,48.71
2018-08-17T11:39:17.707Z,47.05
2018-08-17T11:40:17.318Z,46.95
2018-08-17T11:41:24.350Z,46.83
2018-08-17T11:42:32.217Z,46.75
2018-08-17T11:43:18.207Z,45.80
2018-08-17T11:44:41.681Z,45.14
2018-08-17T11:47:10.273Z,42.19
2018-08-17T11:47:55.965Z,41.33
2018-08-17T11:48:58.897Z,40.84
2018-08-17T11:52:53.189Z,40.00
2018-08-17T11:53:52.603Z,40.09
2018-08-17T11:54:52.664Z,40.39
2018-08-17T11:56:13.758Z,39.03
2018-08-17T11:56:53.686Z,38.56
2018-08-17T11:59:25.250Z,38.56
2018-08-17T12:00:24.607Z,37.23
2018-08-17T12:01:47.694Z,36.15
2018-08-17T12:02:31.774Z,36.08
2018-08-17T12:03:25.017Z,34.92
2018-08-17T12:04:27.207Z,34.82
2018-08-17T12:08:30.805Z,34.25
2018-08-17T12:09:30.777Z,35.10
2018-08-17T12:10:29.343Z,36.62
2018-08-17T12:11:52.343Z,35.87
2018-08-17T12:14:02.756Z,36.62
2018-08-17T12:16:33.234Z,35.77
2018-08-17T12:17:46.302Z,36.26
2018-08-17T12:18:32.308Z,35.30
2018-08-17T12:19:46.803Z,34.82
2018-08-17T12:20:56.234Z,33.95
2018-08-17T12:21:32.802Z,34.44
2018-08-17T12:22:53.802Z,35.02
2018-08-17T12:23:53.402Z,36.22
2018-08-17T12:24:32.695Z,37.30
2018-08-17T12:25:33.305Z,36.82
2018-08-17T12:26:33.302Z,36.63
2018-08-17T12:27:32.940Z,36.42
2018-08-17T12:30:05.275Z,33.95
2018-08-17T12:31:05.229Z,34.06
2018-08-17T12:35:29.045Z,34.70
2018-08-17T12:36:09.489Z,34.61
2018-08-17T12:37:35.519Z,34.63
2018-08-17T12:39:45.848Z,32.80
2018-08-17T12:40:39.241Z,32.70
2018-08-17T12:43:10.822Z,31.45
2018-08-17T12:44:11.543Z,31.07
2018-08-17T12:46:44.647Z,31.26
2018-08-17T12:50:47.155Z,30.91
2018-08-17T12:51:46.180Z,29.74
2018-08-17T12:52:46.227Z,30.13
2018-08-17T12:56:49.476Z,29.62
2018-08-17T12:58:51.424Z,28.88
2018-08-17T13:00:11.004Z,28.39
2018-08-17T13:02:21.298Z,27.32
2018-08-17T13:03:27.311Z,26.95
2018-08-17T13:04:21.301Z,26.93
2018-08-17T13:05:21.803Z,28.38
2018-08-17T13:06:22.736Z,29.25
2018-08-17T13:07:21.808Z,29.64
2018-08-17T13:08:21.803Z,30.33
2018-08-17T13:09:23.758Z,29.92
2018-08-17T13:10:43.314Z,31.09
2018-08-17T13:11:22.302Z,29.72
2018-08-17T13:12:22.305Z,29.14
2018-08-17T13:13:51.234Z,28.78
2018-08-17T13:14:22.074Z,28.41
2018-08-17T13:15:22.801Z,27.63
2018-08-17T13:16:22.803Z,26.34
2018-08-17T13:17:44.313Z,26.27
2018-08-17T13:19:54.041Z,29.00
2018-08-17T13:20:54.825Z,30.72
2018-08-17T13:21:55.273Z,32.56
2018-08-17T13:22:55.301Z,33.02
2018-08-17T13:25:26.717Z,34.74
2018-08-17T13:26:47.724Z,35.03
2018-08-17T13:27:32.724Z,34.89
2018-08-17T13:28:54.224Z,33.94
2018-08-17T13:29:47.528Z,32.97
2018-08-17T13:32:19.043Z,30.63
2018-08-17T13:34:44.377Z,31.10
2018-08-17T13:35:51.337Z,30.03
2018-08-17T13:36:30.338Z,30.31
2018-08-17T13:37:36.835Z,32.15
2018-08-17T13:38:30.849Z,33.80
2018-08-17T13:39:30.843Z,34.16
2018-08-17T13:42:01.815Z,34.80
2018-08-17T13:43:23.535Z,36.80
2018-08-17T13:44:03.541Z,36.02
2018-08-17T13:45:03.038Z,36.14
2018-08-17T13:47:34.477Z,36.63
2018-08-17T13:48:34.537Z,35.94
2018-08-17T13:49:34.478Z,37.87
2018-08-17T13:50:55.977Z,37.29
2018-08-17T13:51:48.978Z,37.96
2018-08-17T13:52:55.366Z,38.55
2018-08-17T13:53:34.980Z,36.35
2018-08-17T13:56:12.764Z,32.72
2018-08-17T13:57:07.706Z,32.18
2018-08-17T13:58:06.771Z,31.23
2018-08-17T14:00:52.558Z,31.04
2018-08-17T14:01:40.564Z,30.19
2018-08-17T14:03:03.504Z,29.51
2018-08-17T14:03:39.067Z,28.85
2018-08-17T14:04:39.067Z,28.45
2018-08-17T14:06:00.065Z,27.87
2018-08-17T14:06:39.072Z,28.06
2018-08-17T14:07:38.691Z,28.25
2018-08-17T14:08:38.845Z,27.00
2018-08-17T14:09:41.029Z,26.49
2018-08-17T14:11:03.997Z,27.24
2018-08-17T14:11:40.068Z,28.72
2018-08-17T14:12:39.434Z,28.55
2018-08-17T14:14:01.065Z,28.45
2018-08-17T14:16:13.328Z,28.62
2018-08-17T14:18:49.362Z,30.17
2018-08-17T14:19:42.742Z,29.41
2018-08-17T14:20:43.370Z,29.76
2018-08-17T14:23:35.424Z,30.63
2018-08-17T14:24:43.124Z,31.03
2018-08-17T14:25:18.601Z,31.13
2018-08-17T14:26:42.670Z,31.14
2018-08-17T14:27:15.671Z,29.88
2018-08-17T14:28:15.666Z,30.96
2018-08-17T14:29:15.184Z,29.78
2018-08-17T14:33:18.201Z,29.48
2018-08-17T14:34:18.947Z,28.80
2018-08-17T14:35:23.419Z,29.78
2018-08-17T14:37:50.732Z,29.20
2018-08-17T14:38:50.738Z,28.70
2018-08-17T14:40:12.246Z,30.44
2018-08-17T14:41:12.254Z,31.21
2018-08-17T14:43:51.115Z,31.10
2018-08-17T14:44:43.099Z,31.18
2018-08-17T14:48:25.699Z,31.46
2018-08-17T14:49:40.410Z,31.84
2018-08-17T14:50:48.409Z,32.51
2018-08-17T14:51:47.025Z,33.38
2018-08-17T14:53:58.300Z,34.15
2018-08-17T14:54:59.235Z,34.23
2018-08-17T14:57:30.004Z,35.39
2018-08-17T14:58:52.480Z,34.80
2018-08-17T14:59:32.007Z,34.90
2018-08-17T15:00:57.509Z,35.29
2018-08-17T15:03:15.946Z,36.14
2018-08-17T15:04:02.946Z,36.72
2018-08-17T15:05:01.952Z,36.41
2018-08-17T15:07:39.745Z,35.53
2018-08-17T15:08:54.071Z,35.73
2018-08-17T15:09:33.183Z,36.51
2018-08-17T15:13:36.964Z,36.41
2018-08-17T15:14:37.912Z,36.22
2018-08-17T15:15:36.921Z,35.22
2018-08-17T15:16:58.420Z,36.10
2018-08-17T15:17:36.666Z,36.30
2018-08-17T15:18:43.460Z,35.52
2018-08-17T15:19:36.952Z,37.47
2018-08-17T15:20:58.917Z,36.79
2018-08-17T15:21:37.923Z,36.38
2018-08-17T15:22:59.850Z,36.28
2018-08-17T15:23:37.404Z,37.14
2018-08-17T15:24:38.420Z,37.63
2018-08-17T15:25:52.428Z,37.54
2018-08-17T15:26:37.781Z,37.04
2018-08-17T15:27:38.418Z,38.12
2018-08-17T15:28:39.022Z,36.94
2018-08-17T15:29:40.920Z,38.02
2018-08-17T15:30:38.918Z,38.02
2018-08-17T15:31:38.407Z,38.40
2018-08-17T15:32:39.418Z,37.91
2018-08-17T15:33:40.852Z,37.40
2018-08-17T15:34:39.418Z,37.60
2018-08-17T15:35:41.851Z,38.18
2018-08-17T15:36:38.906Z,38.38
2018-08-17T15:38:00.919Z,38.77
2018-08-17T15:38:39.927Z,38.77
2018-08-17T15:39:39.919Z,37.87
2018-08-17T15:40:39.404Z,37.48
2018-08-17T15:41:40.421Z,38.06
2018-08-17T15:42:40.427Z,38.16
2018-08-17T15:43:40.421Z,38.75
2018-08-17T15:44:42.426Z,38.43
2018-08-17T15:45:40.919Z,39.51
2018-08-17T15:46:40.920Z,40.09
2018-08-17T15:48:01.920Z,39.41
2018-08-17T15:48:40.920Z,39.51
2018-08-17T15:49:41.450Z,40.58
2018-08-17T15:51:01.867Z,39.78
2018-08-17T15:51:41.420Z,40.17
2018-08-17T15:52:41.422Z,40.37
2018-08-17T15:53:41.924Z,40.66
2018-08-17T15:54:41.921Z,40.27
2018-08-17T15:55:41.920Z,40.56
2018-08-17T15:56:41.920Z,40.47
2018-08-17T15:57:41.576Z,40.56
2018-08-17T15:59:02.647Z,39.88
2018-08-17T15:59:42.427Z,40.66
2018-08-17T16:01:05.410Z,41.63
2018-08-17T16:02:11.395Z,41.44
2018-08-17T16:02:42.927Z,40.56
2018-08-17T16:03:42.923Z,41.13
2018-08-17T16:04:43.919Z,41.52
2018-08-17T16:05:49.421Z,42.20
2018-08-17T16:06:42.655Z,41.52
2018-08-17T16:07:43.420Z,41.81
2018-08-17T16:08:43.420Z,42.30
2018-08-17T16:10:43.921Z,43.08
2018-08-17T16:11:50.919Z,42.28
2018-08-17T16:12:43.920Z,42.98
2018-08-17T16:13:44.425Z,42.96
2018-08-17T16:14:44.421Z,42.76
2018-08-17T16:15:44.421Z,42.96
2018-08-17T16:16:44.422Z,43.15
2018-08-17T16:17:44.918Z,42.84